Terminal Aerodrome Forecast
Issued by NWS Goodland, KS

Home | Current Version | Previous Version | Text Only | Print | Product List | Glossary On
Versions: 1 2 3 4 5 6 7 8 9 10 11 12 13 14 15 16
000
FTUS43 KGLD 292326
TAFGLD
TAF
KGLD 292326Z 3000/3024 36009KT P6SM FEW250
     FM300100 VRB05KT P6SM FEW250
     FM300600 18011KT P6SM SCT250
     FM301500 19019G29KT P6SM SCT080 BKN200=

USA.gov is the U.S. government's official web portal to all federal, state and local government web resources and services.